sensor_id;sensor_type;location;lat;lon;timestamp;P1;durP1;ratioP1;P2;durP2;ratioP2
14965;SDS011;7577;45.226;5.798;2022-11-02T00:01:58;3.60;;;2.03;;
14965;SDS011;7577;45.226;5.798;2022-11-02T00:04:28;4.17;;;2.00;;
14965;SDS011;7577;45.226;5.798;2022-11-02T00:07:08;3.53;;;2.10;;
14965;SDS011;7577;45.226;5.798;2022-11-02T00:09:39;5.37;;;2.50;;
14965;SDS011;7577;45.226;5.798;2022-11-02T00:12:20;4.00;;;2.50;;
14965;SDS011;7577;45.226;5.798;2022-11-02T00:14:50;3.77;;;2.57;;
14965;SDS011;7577;45.226;5.798;2022-11-02T00:17:20;3.77;;;2.00;;
14965;SDS011;7577;45.226;5.798;2022-11-02T00:19:51;5.60;;;2.40;;
14965;SDS011;7577;45.226;5.798;2022-11-02T00:22:21;3.20;;;2.20;;
14965;SDS011;7577;45.226;5.798;2022-11-02T00:24:51;3.97;;;2.03;;
14965;SDS011;7577;45.226;5.798;2022-11-02T00:27:22;4.47;;;2.00;;
14965;SDS011;7577;45.226;5.798;2022-11-02T00:29:53;3.63;;;1.93;;
14965;SDS011;7577;45.226;5.798;2022-11-02T00:32:22;4.53;;;2.20;;
14965;SDS011;7577;45.226;5.798;2022-11-02T00:34:53;4.03;;;2.20;;
14965;SDS011;7577;45.226;5.798;2022-11-02T00:37:23;4.80;;;3.03;;
14965;SDS011;7577;45.226;5.798;2022-11-02T00:39:53;3.87;;;2.30;;
14965;SDS011;7577;45.226;5.798;2022-11-02T00:42:38;4.63;;;2.47;;
14965;SDS011;7577;45.226;5.798;2022-11-02T00:45:08;3.83;;;2.00;;
14965;SDS011;7577;45.226;5.798;2022-11-02T00:47:39;3.33;;;2.07;;
14965;SDS011;7577;45.226;5.798;2022-11-02T00:50:09;6.33;;;2.60;;
14965;SDS011;7577;45.226;5.798;2022-11-02T00:52:39;4.13;;;2.17;;
14965;SDS011;7577;45.226;5.798;2022-11-02T00:55:09;4.40;;;2.30;;
14965;SDS011;7577;45.226;5.798;2022-11-02T00:57:49;4.00;;;2.10;;
14965;SDS011;7577;45.226;5.798;2022-11-02T01:00:20;5.23;;;2.27;;
14965;SDS011;7577;45.226;5.798;2022-11-02T01:02:50;3.57;;;1.80;;
14965;SDS011;7577;45.226;5.798;2022-11-02T01:05:30;4.37;;;2.20;;
14965;SDS011;7577;45.226;5.798;2022-11-02T01:07:59;6.13;;;2.17;;
14965;SDS011;7577;45.226;5.798;2022-11-02T01:10:29;3.97;;;2.33;;
14965;SDS011;7577;45.226;5.798;2022-11-02T01:13:00;3.93;;;2.30;;
14965;SDS011;7577;45.226;5.798;2022-11-02T01:15:30;3.07;;;2.20;;
14965;SDS011;7577;45.226;5.798;2022-11-02T01:18:00;3.57;;;2.47;;
14965;SDS011;7577;45.226;5.798;2022-11-02T01:20:30;3.83;;;1.80;;
14965;SDS011;7577;45.226;5.798;2022-11-02T01:23:00;4.63;;;2.17;;
14965;SDS011;7577;45.226;5.798;2022-11-02T01:25:30;4.17;;;1.87;;
14965;SDS011;7577;45.226;5.798;2022-11-02T01:28:00;6.70;;;3.50;;
14965;SDS011;7577;45.226;5.798;2022-11-02T01:30:30;3.70;;;1.97;;
14965;SDS011;7577;45.226;5.798;2022-11-02T01:33:00;5.50;;;2.10;;
14965;SDS011;7577;45.226;5.798;2022-11-02T01:35:31;7.20;;;2.30;;
14965;SDS011;7577;45.226;5.798;2022-11-02T01:38:01;4.30;;;2.70;;
14965;SDS011;7577;45.226;5.798;2022-11-02T01:40:33;3.67;;;2.47;;
14965;SDS011;7577;45.226;5.798;2022-11-02T01:43:18;4.63;;;3.00;;
14965;SDS011;7577;45.226;5.798;2022-11-02T01:45:50;6.80;;;2.80;;
14965;SDS011;7577;45.226;5.798;2022-11-02T01:48:31;3.30;;;2.63;;
14965;SDS011;7577;45.226;5.798;2022-11-02T01:51:04;5.97;;;2.70;;
14965;SDS011;7577;45.226;5.798;2022-11-02T01:53:37;4.10;;;2.50;;
14965;SDS011;7577;45.226;5.798;2022-11-02T01:56:09;3.57;;;2.30;;
14965;SDS011;7577;45.226;5.798;2022-11-02T01:58:42;3.13;;;2.50;;
14965;SDS011;7577;45.226;5.798;2022-11-02T02:01:15;3.90;;;2.20;;
14965;SDS011;7577;45.226;5.798;2022-11-02T02:03:45;3.23;;;2.40;;
14965;SDS011;7577;45.226;5.798;2022-11-02T02:06:26;4.37;;;2.63;;
14965;SDS011;7577;45.226;5.798;2022-11-02T02:08:57;3.17;;;2.20;;
14965;SDS011;7577;45.226;5.798;2022-11-02T02:11:31;3.10;;;1.93;;
14965;SDS011;7577;45.226;5.798;2022-11-02T02:14:04;3.43;;;2.33;;
14965;SDS011;7577;45.226;5.798;2022-11-02T02:16:40;6.57;;;2.70;;
14965;SDS011;7577;45.226;5.798;2022-11-02T02:19:20;3.23;;;2.40;;
14965;SDS011;7577;45.226;5.798;2022-11-02T02:21:56;4.43;;;2.37;;
14965;SDS011;7577;45.226;5.798;2022-11-02T02:24:32;5.30;;;2.83;;
14965;SDS011;7577;45.226;5.798;2022-11-02T02:27:10;3.50;;;2.37;;
14965;SDS011;7577;45.226;5.798;2022-11-02T02:29:59;4.50;;;2.10;;
14965;SDS011;7577;45.226;5.798;2022-11-02T02:32:40;5.67;;;2.80;;
14965;SDS011;7577;45.226;5.798;2022-11-02T02:35:14;4.47;;;2.80;;
14965;SDS011;7577;45.226;5.798;2022-11-02T02:37:50;6.30;;;3.47;;
14965;SDS011;7577;45.226;5.798;2022-11-02T02:40:24;7.77;;;3.30;;
14965;SDS011;7577;45.226;5.798;2022-11-02T02:42:57;4.80;;;3.27;;
14965;SDS011;7577;45.226;5.798;2022-11-02T02:45:30;5.77;;;3.60;;
14965;SDS011;7577;45.226;5.798;2022-11-02T02:48:05;5.77;;;3.87;;
14965;SDS011;7577;45.226;5.798;2022-11-02T02:50:44;7.90;;;4.00;;
14965;SDS011;7577;45.226;5.798;2022-11-02T02:53:18;5.60;;;3.80;;
14965;SDS011;7577;45.226;5.798;2022-11-02T02:55:49;5.73;;;3.50;;
14965;SDS011;7577;45.226;5.798;2022-11-02T02:58:21;5.93;;;3.70;;
14965;SDS011;7577;45.226;5.798;2022-11-02T03:00:53;4.97;;;3.60;;
14965;SDS011;7577;45.226;5.798;2022-11-02T03:03:24;4.50;;;3.40;;
14965;SDS011;7577;45.226;5.798;2022-11-02T03:06:11;4.80;;;3.83;;
14965;SDS011;7577;45.226;5.798;2022-11-02T03:08:50;6.23;;;3.47;;
14965;SDS011;7577;45.226;5.798;2022-11-02T03:11:26;5.43;;;3.50;;
14965;SDS011;7577;45.226;5.798;2022-11-02T03:14:02;8.80;;;3.10;;
14965;SDS011;7577;45.226;5.798;2022-11-02T03:16:40;4.33;;;3.23;;
14965;SDS011;7577;45.226;5.798;2022-11-02T03:19:14;10.20;;;3.40;;
14965;SDS011;7577;45.226;5.798;2022-11-02T03:21:49;6.03;;;3.87;;
14965;SDS011;7577;45.226;5.798;2022-11-02T03:24:24;5.00;;;3.57;;
14965;SDS011;7577;45.226;5.798;2022-11-02T03:27:05;5.77;;;3.77;;
14965;SDS011;7577;45.226;5.798;2022-11-02T03:29:35;7.07;;;4.13;;
14965;SDS011;7577;45.226;5.798;2022-11-02T03:32:19;6.90;;;3.97;;
14965;SDS011;7577;45.226;5.798;2022-11-02T03:34:53;6.10;;;4.00;;
14965;SDS011;7577;45.226;5.798;2022-11-02T03:37:26;4.97;;;3.40;;
14965;SDS011;7577;45.226;5.798;2022-11-02T03:40:02;9.07;;;3.47;;
14965;SDS011;7577;45.226;5.798;2022-11-02T03:42:34;5.40;;;3.67;;
14965;SDS011;7577;45.226;5.798;2022-11-02T03:45:08;4.23;;;3.63;;
14965;SDS011;7577;45.226;5.798;2022-11-02T03:47:40;5.63;;;3.97;;
14965;SDS011;7577;45.226;5.798;2022-11-02T03:50:14;6.33;;;4.30;;
14965;SDS011;7577;45.226;5.798;2022-11-02T03:52:55;5.40;;;4.07;;
14965;SDS011;7577;45.226;5.798;2022-11-02T03:55:28;7.40;;;3.83;;
14965;SDS011;7577;45.226;5.798;2022-11-02T03:58:01;6.60;;;4.00;;
14965;SDS011;7577;45.226;5.798;2022-11-02T04:00:31;7.27;;;4.10;;
14965;SDS011;7577;45.226;5.798;2022-11-02T04:03:03;6.63;;;4.50;;
14965;SDS011;7577;45.226;5.798;2022-11-02T04:05:48;5.00;;;3.80;;
14965;SDS011;7577;45.226;5.798;2022-11-02T04:08:20;6.13;;;3.63;;
14965;SDS011;7577;45.226;5.798;2022-11-02T04:10:52;5.83;;;4.17;;
14965;SDS011;7577;45.226;5.798;2022-11-02T04:13:40;6.17;;;3.87;;
14965;SDS011;7577;45.226;5.798;2022-11-02T04:16:20;5.63;;;3.83;;
14965;SDS011;7577;45.226;5.798;2022-11-02T04:18:50;5.47;;;3.33;;
14965;SDS011;7577;45.226;5.798;2022-11-02T04:21:30;5.77;;;3.70;;
14965;SDS011;7577;45.226;5.798;2022-11-02T04:23:59;6.67;;;3.70;;
14965;SDS011;7577;45.226;5.798;2022-11-02T04:29:27;5.57;;;3.87;;
14965;SDS011;7577;45.226;5.798;2022-11-02T04:31:57;6.00;;;3.33;;
14965;SDS011;7577;45.226;5.798;2022-11-02T04:34:27;5.37;;;3.60;;
14965;SDS011;7577;45.226;5.798;2022-11-02T04:36:56;4.77;;;3.43;;
14965;SDS011;7577;45.226;5.798;2022-11-02T04:39:26;5.50;;;3.50;;
14965;SDS011;7577;45.226;5.798;2022-11-02T04:41:56;5.60;;;3.60;;
14965;SDS011;7577;45.226;5.798;2022-11-02T04:44:26;8.53;;;4.00;;
14965;SDS011;7577;45.226;5.798;2022-11-02T04:46:56;5.00;;;3.70;;
14965;SDS011;7577;45.226;5.798;2022-11-02T04:49:37;5.07;;;3.53;;
14965;SDS011;7577;45.226;5.798;2022-11-02T04:52:07;5.73;;;4.00;;
14965;SDS011;7577;45.226;5.798;2022-11-02T04:54:37;4.63;;;3.40;;
14965;SDS011;7577;45.226;5.798;2022-11-02T04:57:07;5.20;;;3.73;;
14965;SDS011;7577;45.226;5.798;2022-11-02T04:59:37;4.83;;;3.40;;
14965;SDS011;7577;45.226;5.798;2022-11-02T05:02:07;7.83;;;3.73;;
14965;SDS011;7577;45.226;5.798;2022-11-02T05:04:37;6.47;;;4.00;;
14965;SDS011;7577;45.226;5.798;2022-11-02T05:07:08;6.73;;;3.70;;
14965;SDS011;7577;45.226;5.798;2022-11-02T05:09:54;4.17;;;3.33;;
14965;SDS011;7577;45.226;5.798;2022-11-02T05:12:24;5.80;;;3.70;;
14965;SDS011;7577;45.226;5.798;2022-11-02T05:14:54;5.30;;;3.73;;
14965;SDS011;7577;45.226;5.798;2022-11-02T05:17:24;8.27;;;4.27;;
14965;SDS011;7577;45.226;5.798;2022-11-02T05:19:53;7.57;;;4.50;;
14965;SDS011;7577;45.226;5.798;2022-11-02T05:22:23;6.83;;;5.00;;
14965;SDS011;7577;45.226;5.798;2022-11-02T05:24:53;6.90;;;4.53;;
14965;SDS011;7577;45.226;5.798;2022-11-02T05:27:23;11.37;;;4.13;;
14965;SDS011;7577;45.226;5.798;2022-11-02T05:30:05;6.50;;;3.80;;
14965;SDS011;7577;45.226;5.798;2022-11-02T05:32:36;5.70;;;3.77;;
14965;SDS011;7577;45.226;5.798;2022-11-02T05:35:06;4.80;;;3.80;;
14965;SDS011;7577;45.226;5.798;2022-11-02T05:37:38;6.07;;;4.03;;
14965;SDS011;7577;45.226;5.798;2022-11-02T05:40:09;4.73;;;3.87;;
14965;SDS011;7577;45.226;5.798;2022-11-02T05:42:49;4.97;;;3.47;;
14965;SDS011;7577;45.226;5.798;2022-11-02T05:45:19;5.03;;;3.87;;
14965;SDS011;7577;45.226;5.798;2022-11-02T05:47:49;6.47;;;4.53;;
14965;SDS011;7577;45.226;5.798;2022-11-02T05:50:19;6.07;;;4.80;;
14965;SDS011;7577;45.226;5.798;2022-11-02T05:52:58;6.97;;;4.10;;
14965;SDS011;7577;45.226;5.798;2022-11-02T05:55:28;5.50;;;4.00;;
14965;SDS011;7577;45.226;5.798;2022-11-02T05:57:58;8.53;;;4.27;;
14965;SDS011;7577;45.226;5.798;2022-11-02T06:00:28;6.70;;;4.20;;
14965;SDS011;7577;45.226;5.798;2022-11-02T06:02:58;5.10;;;4.30;;
14965;SDS011;7577;45.226;5.798;2022-11-02T06:05:43;5.57;;;3.87;;
14965;SDS011;7577;45.226;5.798;2022-11-02T06:08:13;7.97;;;4.43;;
14965;SDS011;7577;45.226;5.798;2022-11-02T06:10:43;7.60;;;4.23;;
14965;SDS011;7577;45.226;5.798;2022-11-02T06:13:15;6.53;;;4.40;;
14965;SDS011;7577;45.226;5.798;2022-11-02T06:15:45;7.20;;;4.30;;
14965;SDS011;7577;45.226;5.798;2022-11-02T06:18:15;7.40;;;4.80;;
14965;SDS011;7577;45.226;5.798;2022-11-02T06:20:46;7.33;;;5.70;;
14965;SDS011;7577;45.226;5.798;2022-11-02T06:23:16;7.30;;;5.03;;
14965;SDS011;7577;45.226;5.798;2022-11-02T06:25:49;10.83;;;5.40;;
14965;SDS011;7577;45.226;5.798;2022-11-02T06:28:20;6.60;;;4.87;;
14965;SDS011;7577;45.226;5.798;2022-11-02T06:30:51;7.73;;;5.47;;
14965;SDS011;7577;45.226;5.798;2022-11-02T06:33:21;5.90;;;4.73;;
14965;SDS011;7577;45.226;5.798;2022-11-02T06:35:52;5.57;;;4.53;;
14965;SDS011;7577;45.226;5.798;2022-11-02T06:38:22;7.33;;;4.60;;
14965;SDS011;7577;45.226;5.798;2022-11-02T06:40:53;6.83;;;5.27;;
14965;SDS011;7577;45.226;5.798;2022-11-02T06:43:23;6.43;;;4.83;;
14965;SDS011;7577;45.226;5.798;2022-11-02T06:45:54;5.57;;;4.00;;
14965;SDS011;7577;45.226;5.798;2022-11-02T06:48:25;7.87;;;5.13;;
14965;SDS011;7577;45.226;5.798;2022-11-02T06:50:56;6.83;;;4.77;;
14965;SDS011;7577;45.226;5.798;2022-11-02T06:53:40;7.53;;;5.23;;
14965;SDS011;7577;45.226;5.798;2022-11-02T06:56:10;6.67;;;4.80;;
14965;SDS011;7577;45.226;5.798;2022-11-02T06:58:40;7.43;;;4.50;;
14965;SDS011;7577;45.226;5.798;2022-11-02T07:01:10;6.37;;;4.53;;
14965;SDS011;7577;45.226;5.798;2022-11-02T07:03:41;7.73;;;4.90;;
14965;SDS011;7577;45.226;5.798;2022-11-02T07:06:22;6.63;;;4.43;;
14965;SDS011;7577;45.226;5.798;2022-11-02T07:08:52;7.23;;;4.67;;
14965;SDS011;7577;45.226;5.798;2022-11-02T07:11:23;4.83;;;4.30;;
14965;SDS011;7577;45.226;5.798;2022-11-02T07:13:53;5.97;;;4.37;;
14965;SDS011;7577;45.226;5.798;2022-11-02T07:16:22;4.67;;;4.23;;
14965;SDS011;7577;45.226;5.798;2022-11-02T07:18:52;8.77;;;4.67;;
14965;SDS011;7577;45.226;5.798;2022-11-02T07:21:37;5.67;;;4.30;;
14965;SDS011;7577;45.226;5.798;2022-11-02T07:24:07;7.50;;;4.90;;
14965;SDS011;7577;45.226;5.798;2022-11-02T07:26:37;9.27;;;5.00;;
14965;SDS011;7577;45.226;5.798;2022-11-02T07:29:07;6.37;;;5.60;;
14965;SDS011;7577;45.226;5.798;2022-11-02T07:31:37;10.73;;;7.27;;
14965;SDS011;7577;45.226;5.798;2022-11-02T07:34:07;10.77;;;6.20;;
14965;SDS011;7577;45.226;5.798;2022-11-02T07:36:37;8.20;;;5.73;;
14965;SDS011;7577;45.226;5.798;2022-11-02T07:39:07;10.97;;;6.60;;
14965;SDS011;7577;45.226;5.798;2022-11-02T07:41:48;8.23;;;6.03;;
14965;SDS011;7577;45.226;5.798;2022-11-02T07:44:18;7.20;;;6.23;;
14965;SDS011;7577;45.226;5.798;2022-11-02T07:46:48;8.40;;;5.73;;
14965;SDS011;7577;45.226;5.798;2022-11-02T07:49:17;7.70;;;5.73;;
14965;SDS011;7577;45.226;5.798;2022-11-02T07:51:47;8.10;;;6.03;;
14965;SDS011;7577;45.226;5.798;2022-11-02T07:54:17;8.50;;;6.17;;
14965;SDS011;7577;45.226;5.798;2022-11-02T07:56:47;7.07;;;6.07;;
14965;SDS011;7577;45.226;5.798;2022-11-02T07:59:17;7.20;;;6.30;;
14965;SDS011;7577;45.226;5.798;2022-11-02T08:01:48;8.80;;;6.60;;
14965;SDS011;7577;45.226;5.798;2022-11-02T08:04:18;7.30;;;6.60;;
14965;SDS011;7577;45.226;5.798;2022-11-02T08:06:58;7.87;;;5.77;;
14965;SDS011;7577;45.226;5.798;2022-11-02T08:09:28;6.73;;;5.93;;
14965;SDS011;7577;45.226;5.798;2022-11-02T08:11:58;6.33;;;5.47;;
14965;SDS011;7577;45.226;5.798;2022-11-02T08:14:28;6.80;;;5.20;;
14965;SDS011;7577;45.226;5.798;2022-11-02T08:16:58;7.83;;;5.40;;
14965;SDS011;7577;45.226;5.798;2022-11-02T08:19:28;8.00;;;5.97;;
14965;SDS011;7577;45.226;5.798;2022-11-02T08:21:58;9.83;;;5.37;;
14965;SDS011;7577;45.226;5.798;2022-11-02T08:24:29;6.33;;;5.67;;
14965;SDS011;7577;45.226;5.798;2022-11-02T08:27:00;7.27;;;6.10;;
14965;SDS011;7577;45.226;5.798;2022-11-02T08:29:30;7.60;;;6.00;;
14965;SDS011;7577;45.226;5.798;2022-11-02T08:32:01;9.40;;;6.70;;
14965;SDS011;7577;45.226;5.798;2022-11-02T08:34:31;7.33;;;5.60;;
14965;SDS011;7577;45.226;5.798;2022-11-02T08:37:01;7.60;;;6.00;;
14965;SDS011;7577;45.226;5.798;2022-11-02T08:39:33;7.30;;;6.50;;
14965;SDS011;7577;45.226;5.798;2022-11-02T08:42:03;8.00;;;6.17;;
14965;SDS011;7577;45.226;5.798;2022-11-02T08:44:33;6.97;;;6.07;;
14965;SDS011;7577;45.226;5.798;2022-11-02T08:47:03;6.87;;;6.00;;
14965;SDS011;7577;45.226;5.798;2022-11-02T08:49:33;6.63;;;5.60;;
14965;SDS011;7577;45.226;5.798;2022-11-02T08:52:03;6.70;;;5.37;;
14965;SDS011;7577;45.226;5.798;2022-11-02T08:54:33;8.53;;;5.93;;
14965;SDS011;7577;45.226;5.798;2022-11-02T08:57:04;8.87;;;5.53;;
14965;SDS011;7577;45.226;5.798;2022-11-02T08:59:34;9.03;;;5.57;;
14965;SDS011;7577;45.226;5.798;2022-11-02T09:02:04;7.03;;;5.80;;
14965;SDS011;7577;45.226;5.798;2022-11-02T09:04:33;6.80;;;5.63;;
14965;SDS011;7577;45.226;5.798;2022-11-02T09:07:03;7.30;;;5.13;;
14965;SDS011;7577;45.226;5.798;2022-11-02T09:09:33;7.13;;;4.03;;
14965;SDS011;7577;45.226;5.798;2022-11-02T09:12:04;7.00;;;4.20;;
14965;SDS011;7577;45.226;5.798;2022-11-02T09:14:34;8.63;;;5.03;;
14965;SDS011;7577;45.226;5.798;2022-11-02T09:17:04;6.70;;;4.33;;
14965;SDS011;7577;45.226;5.798;2022-11-02T09:19:34;7.97;;;4.50;;
14965;SDS011;7577;45.226;5.798;2022-11-02T09:22:04;6.97;;;5.20;;
14965;SDS011;7577;45.226;5.798;2022-11-02T09:24:34;6.10;;;4.73;;
14965;SDS011;7577;45.226;5.798;2022-11-02T09:27:04;10.33;;;5.23;;
14965;SDS011;7577;45.226;5.798;2022-11-02T09:29:34;7.40;;;4.70;;
14965;SDS011;7577;45.226;5.798;2022-11-02T09:32:04;5.77;;;4.37;;
14965;SDS011;7577;45.226;5.798;2022-11-02T09:34:34;6.67;;;4.97;;
14965;SDS011;7577;45.226;5.798;2022-11-02T09:37:04;6.33;;;4.67;;
14965;SDS011;7577;45.226;5.798;2022-11-02T09:39:35;5.17;;;4.03;;
14965;SDS011;7577;45.226;5.798;2022-11-02T09:42:06;8.97;;;4.50;;
14965;SDS011;7577;45.226;5.798;2022-11-02T09:44:41;8.73;;;5.27;;
14965;SDS011;7577;45.226;5.798;2022-11-02T09:47:13;7.40;;;4.87;;
14965;SDS011;7577;45.226;5.798;2022-11-02T09:49:45;7.20;;;4.30;;
14965;SDS011;7577;45.226;5.798;2022-11-02T09:52:17;5.63;;;4.43;;
14965;SDS011;7577;45.226;5.798;2022-11-02T09:54:49;7.67;;;3.47;;
14965;SDS011;7577;45.226;5.798;2022-11-02T09:57:24;6.00;;;3.83;;
14965;SDS011;7577;45.226;5.798;2022-11-02T09:59:59;5.87;;;3.87;;
14965;SDS011;7577;45.226;5.798;2022-11-02T10:02:30;6.77;;;4.10;;
14965;SDS011;7577;45.226;5.798;2022-11-02T10:08:12;6.27;;;3.80;;
14965;SDS011;7577;45.226;5.798;2022-11-02T10:11:00;6.77;;;3.33;;
14965;SDS011;7577;45.226;5.798;2022-11-02T10:13:36;4.47;;;3.57;;
14965;SDS011;7577;45.226;5.798;2022-11-02T10:16:09;6.03;;;3.60;;
14965;SDS011;7577;45.226;5.798;2022-11-02T10:18:42;5.87;;;3.70;;
14965;SDS011;7577;45.226;5.798;2022-11-02T10:21:25;5.10;;;3.10;;
14965;SDS011;7577;45.226;5.798;2022-11-02T10:23:56;6.63;;;3.37;;
14965;SDS011;7577;45.226;5.798;2022-11-02T10:26:31;3.97;;;2.93;;
14965;SDS011;7577;45.226;5.798;2022-11-02T10:29:04;5.50;;;2.97;;
14965;SDS011;7577;45.226;5.798;2022-11-02T10:31:45;4.43;;;3.10;;
14965;SDS011;7577;45.226;5.798;2022-11-02T10:34:20;6.87;;;3.63;;
14965;SDS011;7577;45.226;5.798;2022-11-02T10:37:12;3.47;;;2.90;;
14965;SDS011;7577;45.226;5.798;2022-11-02T10:39:51;3.40;;;2.90;;
14965;SDS011;7577;45.226;5.798;2022-11-02T10:42:29;5.13;;;3.40;;
14965;SDS011;7577;45.226;5.798;2022-11-02T10:45:22;5.07;;;2.70;;
14965;SDS011;7577;45.226;5.798;2022-11-02T10:48:05;5.07;;;3.20;;
14965;SDS011;7577;45.226;5.798;2022-11-02T10:50:41;5.67;;;3.03;;
14965;SDS011;7577;45.226;5.798;2022-11-02T10:53:24;6.30;;;3.60;;
14965;SDS011;7577;45.226;5.798;2022-11-02T10:55:55;7.90;;;3.60;;
14965;SDS011;7577;45.226;5.798;2022-11-02T10:58:29;7.60;;;3.63;;
14965;SDS011;7577;45.226;5.798;2022-11-02T11:01:04;7.00;;;3.87;;
14965;SDS011;7577;45.226;5.798;2022-11-02T11:03:46;4.47;;;3.13;;
14965;SDS011;7577;45.226;5.798;2022-11-02T11:06:33;5.97;;;3.20;;
14965;SDS011;7577;45.226;5.798;2022-11-02T11:09:04;4.93;;;3.43;;
14965;SDS011;7577;45.226;5.798;2022-11-02T11:11:36;4.70;;;3.10;;
14965;SDS011;7577;45.226;5.798;2022-11-02T11:14:06;5.83;;;3.30;;
14965;SDS011;7577;45.226;5.798;2022-11-02T11:16:43;5.60;;;3.10;;
14965;SDS011;7577;45.226;5.798;2022-11-02T11:19:21;7.47;;;3.50;;
14965;SDS011;7577;45.226;5.798;2022-11-02T11:21:53;7.07;;;3.63;;
14965;SDS011;7577;45.226;5.798;2022-11-02T11:24:25;7.17;;;3.40;;
14965;SDS011;7577;45.226;5.798;2022-11-02T11:27:00;4.93;;;2.97;;
14965;SDS011;7577;45.226;5.798;2022-11-02T11:29:33;5.47;;;3.27;;
14965;SDS011;7577;45.226;5.798;2022-11-02T11:32:13;4.33;;;2.90;;
14965;SDS011;7577;45.226;5.798;2022-11-02T11:34:44;6.17;;;3.20;;
14965;SDS011;7577;45.226;5.798;2022-11-02T11:37:15;6.23;;;3.07;;
14965;SDS011;7577;45.226;5.798;2022-11-02T11:39:45;5.30;;;2.70;;
14965;SDS011;7577;45.226;5.798;2022-11-02T11:42:19;5.53;;;2.70;;
14965;SDS011;7577;45.226;5.798;2022-11-02T11:44:54;6.77;;;2.50;;
14965;SDS011;7577;45.226;5.798;2022-11-02T11:47:27;3.33;;;2.60;;
14965;SDS011;7577;45.226;5.798;2022-11-02T11:50:11;5.40;;;2.90;;
14965;SDS011;7577;45.226;5.798;2022-11-02T11:52:43;4.47;;;2.63;;
14965;SDS011;7577;45.226;5.798;2022-11-02T11:55:21;5.27;;;2.80;;
14965;SDS011;7577;45.226;5.798;2022-11-02T11:58:05;5.93;;;2.70;;
14965;SDS011;7577;45.226;5.798;2022-11-02T12:00:41;6.37;;;3.13;;
14965;SDS011;7577;45.226;5.798;2022-11-02T12:03:12;4.53;;;3.27;;
14965;SDS011;7577;45.226;5.798;2022-11-02T12:05:46;5.70;;;3.00;;
14965;SDS011;7577;45.226;5.798;2022-11-02T12:08:35;8.00;;;3.50;;
14965;SDS011;7577;45.226;5.798;2022-11-02T12:11:19;6.27;;;3.57;;
14965;SDS011;7577;45.226;5.798;2022-11-02T12:17:11;6.27;;;3.03;;
14965;SDS011;7577;45.226;5.798;2022-11-02T12:19:55;6.13;;;2.90;;
14965;SDS011;7577;45.226;5.798;2022-11-02T12:22:35;7.83;;;3.40;;
14965;SDS011;7577;45.226;5.798;2022-11-02T12:28:13;7.17;;;3.37;;
14965;SDS011;7577;45.226;5.798;2022-11-02T12:30:51;7.47;;;2.97;;
14965;SDS011;7577;45.226;5.798;2022-11-02T12:33:36;4.67;;;2.97;;
14965;SDS011;7577;45.226;5.798;2022-11-02T12:36:17;5.50;;;2.63;;
14965;SDS011;7577;45.226;5.798;2022-11-02T12:38:55;5.80;;;2.83;;
14965;SDS011;7577;45.226;5.798;2022-11-02T12:41:35;5.50;;;2.57;;
14965;SDS011;7577;45.226;5.798;2022-11-02T12:44:14;4.47;;;2.70;;
14965;SDS011;7577;45.226;5.798;2022-11-02T12:46:48;3.97;;;2.60;;
14965;SDS011;7577;45.226;5.798;2022-11-02T12:49:25;7.83;;;2.97;;
14965;SDS011;7577;45.226;5.798;2022-11-02T12:52:32;4.33;;;2.87;;
14965;SDS011;7577;45.226;5.798;2022-11-02T12:55:08;4.37;;;2.93;;
14965;SDS011;7577;45.226;5.798;2022-11-02T12:57:50;4.83;;;2.83;;
14965;SDS011;7577;45.226;5.798;2022-11-02T13:00:23;5.57;;;2.80;;
14965;SDS011;7577;45.226;5.798;2022-11-02T13:02:57;5.43;;;2.50;;
14965;SDS011;7577;45.226;5.798;2022-11-02T13:05:33;5.20;;;2.53;;
14965;SDS011;7577;45.226;5.798;2022-11-02T13:08:08;5.30;;;2.50;;
14965;SDS011;7577;45.226;5.798;2022-11-02T13:10:42;4.37;;;2.73;;
14965;SDS011;7577;45.226;5.798;2022-11-02T13:13:15;3.93;;;2.73;;
14965;SDS011;7577;45.226;5.798;2022-11-02T13:15:47;5.40;;;2.63;;
14965;SDS011;7577;45.226;5.798;2022-11-02T13:18:20;6.40;;;2.60;;
14965;SDS011;7577;45.226;5.798;2022-11-02T13:20:52;4.90;;;2.50;;
14965;SDS011;7577;45.226;5.798;2022-11-02T13:23:27;3.47;;;2.57;;
14965;SDS011;7577;45.226;5.798;2022-11-02T13:26:09;4.90;;;2.43;;
14965;SDS011;7577;45.226;5.798;2022-11-02T13:28:42;6.87;;;3.20;;
14965;SDS011;7577;45.226;5.798;2022-11-02T13:31:15;5.57;;;2.63;;
14965;SDS011;7577;45.226;5.798;2022-11-02T13:33:55;5.90;;;2.70;;
14965;SDS011;7577;45.226;5.798;2022-11-02T13:36:28;5.10;;;2.37;;
14965;SDS011;7577;45.226;5.798;2022-11-02T13:38:59;5.33;;;2.77;;
14965;SDS011;7577;45.226;5.798;2022-11-02T13:41:52;7.40;;;2.70;;
14965;SDS011;7577;45.226;5.798;2022-11-02T13:44:27;5.53;;;2.40;;
14965;SDS011;7577;45.226;5.798;2022-11-02T13:47:22;3.90;;;2.27;;
14965;SDS011;7577;45.226;5.798;2022-11-02T13:49:58;4.60;;;2.63;;
14965;SDS011;7577;45.226;5.798;2022-11-02T13:52:39;6.20;;;2.63;;
14965;SDS011;7577;45.226;5.798;2022-11-02T13:55:14;7.53;;;2.77;;
14965;SDS011;7577;45.226;5.798;2022-11-02T13:57:48;5.40;;;3.10;;
14965;SDS011;7577;45.226;5.798;2022-11-02T14:00:29;5.13;;;2.57;;
14965;SDS011;7577;45.226;5.798;2022-11-02T14:03:04;4.83;;;2.67;;
14965;SDS011;7577;45.226;5.798;2022-11-02T14:05:45;3.53;;;2.20;;
14965;SDS011;7577;45.226;5.798;2022-11-02T14:08:19;6.20;;;2.50;;
14965;SDS011;7577;45.226;5.798;2022-11-02T14:11:01;4.73;;;2.30;;
14965;SDS011;7577;45.226;5.798;2022-11-02T14:14:05;3.63;;;2.23;;
14965;SDS011;7577;45.226;5.798;2022-11-02T14:16:45;3.63;;;2.03;;
14965;SDS011;7577;45.226;5.798;2022-11-02T14:19:31;7.47;;;2.20;;
14965;SDS011;7577;45.226;5.798;2022-11-02T14:22:13;4.13;;;2.23;;
14965;SDS011;7577;45.226;5.798;2022-11-02T14:24:54;3.37;;;2.13;;
14965;SDS011;7577;45.226;5.798;2022-11-02T14:27:56;3.80;;;2.13;;
14965;SDS011;7577;45.226;5.798;2022-11-02T14:30:43;5.93;;;2.50;;
14965;SDS011;7577;45.226;5.798;2022-11-02T14:33:17;4.80;;;2.17;;
14965;SDS011;7577;45.226;5.798;2022-11-02T14:36:19;4.47;;;1.97;;
14965;SDS011;7577;45.226;5.798;2022-11-02T14:38:58;6.00;;;2.20;;
14965;SDS011;7577;45.226;5.798;2022-11-02T14:41:39;5.00;;;2.67;;
14965;SDS011;7577;45.226;5.798;2022-11-02T14:44:43;7.40;;;2.17;;
14965;SDS011;7577;45.226;5.798;2022-11-02T14:47:20;4.67;;;1.93;;
14965;SDS011;7577;45.226;5.798;2022-11-02T14:50:06;3.73;;;2.07;;
14965;SDS011;7577;45.226;5.798;2022-11-02T14:52:51;3.20;;;1.73;;
14965;SDS011;7577;45.226;5.798;2022-11-02T14:55:23;3.73;;;2.07;;
14965;SDS011;7577;45.226;5.798;2022-11-02T14:57:56;4.40;;;2.20;;
14965;SDS011;7577;45.226;5.798;2022-11-02T15:00:38;3.93;;;1.90;;
14965;SDS011;7577;45.226;5.798;2022-11-02T15:03:30;5.33;;;2.50;;
14965;SDS011;7577;45.226;5.798;2022-11-02T15:06:13;4.70;;;2.40;;
14965;SDS011;7577;45.226;5.798;2022-11-02T15:08:51;4.83;;;2.00;;
14965;SDS011;7577;45.226;5.798;2022-11-02T15:11:43;5.60;;;1.90;;
14965;SDS011;7577;45.226;5.798;2022-11-02T15:14:38;4.53;;;2.10;;
14965;SDS011;7577;45.226;5.798;2022-11-02T15:20:39;3.17;;;1.60;;
14965;SDS011;7577;45.226;5.798;2022-11-02T15:23:20;4.13;;;1.70;;
14965;SDS011;7577;45.226;5.798;2022-11-02T15:25:52;4.63;;;1.60;;
14965;SDS011;7577;45.226;5.798;2022-11-02T15:28:25;5.53;;;2.33;;
14965;SDS011;7577;45.226;5.798;2022-11-02T15:30:57;5.33;;;1.80;;
14965;SDS011;7577;45.226;5.798;2022-11-02T15:33:33;6.70;;;1.77;;
14965;SDS011;7577;45.226;5.798;2022-11-02T15:36:05;6.00;;;1.70;;
14965;SDS011;7577;45.226;5.798;2022-11-02T15:38:37;3.93;;;1.73;;
14965;SDS011;7577;45.226;5.798;2022-11-02T15:41:17;5.83;;;1.80;;
14965;SDS011;7577;45.226;5.798;2022-11-02T15:47:16;4.57;;;1.93;;
14965;SDS011;7577;45.226;5.798;2022-11-02T15:50:08;3.67;;;1.60;;
14965;SDS011;7577;45.226;5.798;2022-11-02T15:56:20;5.30;;;2.00;;
14965;SDS011;7577;45.226;5.798;2022-11-02T16:02:28;5.27;;;2.20;;
14965;SDS011;7577;45.226;5.798;2022-11-02T16:05:01;4.73;;;1.97;;
14965;SDS011;7577;45.226;5.798;2022-11-02T16:07:41;5.07;;;1.70;;
14965;SDS011;7577;45.226;5.798;2022-11-02T16:10:18;4.20;;;2.10;;
14965;SDS011;7577;45.226;5.798;2022-11-02T16:13:00;5.50;;;2.30;;